createdAt,value
2023-04-17T00:01:55.483Z,18.15
2023-04-17T00:04:23.011Z,16.27
2023-04-17T00:06:50.169Z,17.83
2023-04-17T00:09:17.277Z,17.00
2023-04-17T00:11:44.408Z,16.58
2023-04-17T00:14:11.501Z,17.02
2023-04-17T00:16:38.721Z,18.38
2023-04-17T00:19:06.001Z,16.85
2023-04-17T00:21:33.139Z,17.58
2023-04-17T00:24:00.268Z,17.13
2023-04-17T00:26:27.396Z,17.83
2023-04-17T00:28:54.534Z,17.63
2023-04-17T00:31:21.624Z,16.95
2023-04-17T00:33:48.788Z,17.08
2023-04-17T00:36:15.931Z,16.95
2023-04-17T00:38:43.054Z,16.20
2023-04-17T00:41:10.523Z,18.00
2023-04-17T00:43:37.856Z,16.70
2023-04-17T00:46:05.699Z,17.50
2023-04-17T00:48:34.655Z,18.90
2023-04-17T00:51:03.215Z,17.73
2023-04-17T00:53:33.874Z,17.17
2023-04-17T00:56:01.590Z,18.20
2023-04-17T00:58:28.760Z,17.13
2023-04-17T01:00:56.060Z,18.25
2023-04-17T01:03:23.580Z,16.33
2023-04-17T01:05:51.758Z,17.15
2023-04-17T01:08:19.603Z,17.23
2023-04-17T01:10:46.887Z,17.23
2023-04-17T01:13:13.990Z,17.60
2023-04-17T01:15:41.209Z,16.80
2023-04-17T01:18:08.390Z,16.58
2023-04-17T01:20:35.833Z,17.80
2023-04-17T01:23:02.922Z,17.25
2023-04-17T01:25:30.060Z,17.48
2023-04-17T01:27:57.374Z,18.23
2023-04-17T01:30:24.486Z,17.50
2023-04-17T01:32:54.047Z,16.02
2023-04-17T01:35:21.228Z,19.73
2023-04-17T01:37:48.324Z,18.45
2023-04-17T01:40:15.502Z,19.27
2023-04-17T01:42:42.568Z,18.48
2023-04-17T01:45:09.897Z,19.35
2023-04-17T01:47:37.196Z,17.35
2023-04-17T01:50:04.444Z,18.50
2023-04-17T01:52:31.585Z,17.77
2023-04-17T01:54:58.721Z,18.55
2023-04-17T01:57:26.289Z,17.30
2023-04-17T01:59:53.388Z,19.05
2023-04-17T02:02:20.642Z,18.17
2023-04-17T02:04:47.867Z,18.48
2023-04-17T02:07:15.010Z,18.92
2023-04-17T02:09:42.147Z,18.73
2023-04-17T02:12:09.217Z,19.92
2023-04-17T02:14:36.310Z,18.92
2023-04-17T02:17:03.473Z,18.38
2023-04-17T02:19:30.584Z,18.75
2023-04-17T02:21:57.661Z,18.70
2023-04-17T02:24:24.807Z,18.52
2023-04-17T02:26:51.918Z,18.30
2023-04-17T02:29:19.011Z,18.60
2023-04-17T02:31:46.384Z,19.02
2023-04-17T02:34:13.641Z,17.67
2023-04-17T02:36:40.758Z,17.65
2023-04-17T02:39:07.881Z,17.55
2023-04-17T02:41:34.996Z,17.73
2023-04-17T02:44:02.182Z,17.83
2023-04-17T02:46:29.682Z,17.00
2023-04-17T02:48:56.815Z,17.10
2023-04-17T02:51:23.957Z,16.77
2023-04-17T02:53:51.137Z,17.30
2023-04-17T02:56:18.240Z,18.25
2023-04-17T02:58:45.552Z,17.67
2023-04-17T03:01:12.815Z,16.52
2023-04-17T03:03:42.520Z,16.67
2023-04-17T03:06:09.985Z,15.95
2023-04-17T03:08:38.536Z,16.33
2023-04-17T03:11:06.338Z,16.23
2023-04-17T03:13:36.983Z,15.40
2023-04-17T03:16:05.061Z,16.90
2023-04-17T03:18:32.600Z,17.80
2023-04-17T03:20:59.683Z,18.08
2023-04-17T03:23:26.792Z,19.20
2023-04-17T03:25:54.187Z,18.02
2023-04-17T03:28:22.231Z,18.05
2023-04-17T03:30:50.302Z,18.55
2023-04-17T03:33:17.693Z,18.65
2023-04-17T03:35:46.545Z,18.42
2023-04-17T03:38:13.792Z,16.95
2023-04-17T03:40:41.855Z,17.10
2023-04-17T03:43:08.926Z,16.67
2023-04-17T03:45:36.491Z,14.02
2023-04-17T03:48:03.761Z,15.32
2023-04-17T03:50:30.972Z,15.15
2023-04-17T03:52:58.111Z,14.43
2023-04-17T03:55:25.359Z,12.88
2023-04-17T03:57:52.493Z,11.80
2023-04-17T04:00:20.064Z,10.65
2023-04-17T04:02:47.355Z,10.23
2023-04-17T04:05:14.861Z,11.20
2023-04-17T04:07:42.190Z,10.85
2023-04-17T04:10:09.581Z,10.20
2023-04-17T04:12:36.687Z,8.70
2023-04-17T04:15:03.948Z,9.45
2023-04-17T04:17:31.081Z,9.25
2023-04-17T04:19:58.183Z,9.25
2023-04-17T04:22:26.023Z,8.00
2023-04-17T04:24:53.782Z,7.85
2023-04-17T04:27:22.737Z,8.02
2023-04-17T04:29:50.276Z,8.50
2023-04-17T04:32:17.548Z,8.77
2023-04-17T04:34:44.719Z,8.18
2023-04-17T04:37:15.712Z,7.93
2023-04-17T04:42:10.544Z,7.68
2023-04-17T04:44:37.733Z,7.18
2023-04-17T04:47:05.154Z,7.78
2023-04-17T04:49:32.421Z,7.15
2023-04-17T04:51:59.602Z,7.22
2023-04-17T04:54:26.773Z,6.85
2023-04-17T04:56:53.945Z,7.05
2023-04-17T04:59:21.154Z,7.40
2023-04-17T05:01:48.348Z,7.15
2023-04-17T05:04:15.582Z,6.88
2023-04-17T05:06:42.856Z,6.22
2023-04-17T05:09:10.326Z,7.00
2023-04-17T05:11:37.685Z,6.55
2023-04-17T05:14:04.850Z,6.45
2023-04-17T05:16:32.892Z,5.30
2023-04-17T05:19:00.187Z,5.82
2023-04-17T05:21:29.271Z,6.05
2023-04-17T05:23:57.699Z,5.70
2023-04-17T05:26:24.855Z,5.97
2023-04-17T05:28:52.055Z,5.63
2023-04-17T05:31:19.276Z,6.70
2023-04-17T05:33:46.384Z,5.13
2023-04-17T05:36:13.523Z,5.15
2023-04-17T05:38:40.766Z,5.95
2023-04-17T05:41:08.452Z,5.50
2023-04-17T05:43:35.726Z,6.18
2023-04-17T05:46:03.205Z,5.50
2023-04-17T05:48:30.343Z,5.07
2023-04-17T05:50:57.604Z,5.30
2023-04-17T05:53:24.682Z,5.35
2023-04-17T05:55:51.775Z,5.13
2023-04-17T06:00:48.935Z,5.07
2023-04-17T06:03:18.347Z,4.88
2023-04-17T06:05:47.132Z,4.78
2023-04-17T06:08:14.489Z,4.25
2023-04-17T06:10:41.720Z,4.45
2023-04-17T06:13:09.198Z,3.63
2023-04-17T06:15:36.605Z,4.63
2023-04-17T06:18:03.764Z,4.47
2023-04-17T06:20:30.991Z,4.05
2023-04-17T06:22:58.156Z,3.67
2023-04-17T06:25:25.412Z,4.20
2023-04-17T06:27:52.618Z,3.90
2023-04-17T06:30:19.729Z,4.43
2023-04-17T06:32:46.808Z,4.20
2023-04-17T06:35:14.012Z,4.20
2023-04-17T06:37:41.086Z,4.20
2023-04-17T06:40:08.505Z,4.47
2023-04-17T06:42:35.860Z,4.45
2023-04-17T06:45:02.954Z,4.18
2023-04-17T06:47:30.649Z,3.30
2023-04-17T06:49:59.870Z,3.83
2023-04-17T06:52:27.206Z,3.60
2023-04-17T06:54:57.504Z,2.92
2023-04-17T06:57:24.689Z,3.93
2023-04-17T06:59:51.768Z,3.80
2023-04-17T07:02:19.451Z,3.72
2023-04-17T07:04:46.793Z,3.65
2023-04-17T07:07:13.969Z,4.07
2023-04-17T07:09:42.963Z,3.80
2023-04-17T07:12:10.179Z,4.03
2023-04-17T07:14:38.222Z,4.00
2023-04-17T07:17:05.612Z,4.25
2023-04-17T07:19:33.970Z,3.90
2023-04-17T07:22:01.443Z,4.43
2023-04-17T07:24:28.504Z,4.20
2023-04-17T07:26:57.051Z,4.53
2023-04-17T07:29:24.192Z,4.68
2023-04-17T07:31:51.342Z,5.18
2023-04-17T07:34:18.510Z,5.10
2023-04-17T07:36:46.573Z,4.72
2023-04-17T07:39:13.949Z,5.97
2023-04-17T07:41:41.294Z,5.72
2023-04-17T07:44:08.407Z,5.70
2023-04-17T07:46:35.555Z,5.90
2023-04-17T07:49:02.667Z,5.75
2023-04-17T07:51:31.549Z,5.72
2023-04-17T07:53:58.622Z,5.13
2023-04-17T07:56:28.232Z,5.65
2023-04-17T07:58:55.631Z,5.93
2023-04-17T08:01:22.827Z,5.95
2023-04-17T08:03:51.863Z,6.00
2023-04-17T08:06:19.238Z,6.13
2023-04-17T08:08:47.657Z,5.38
2023-04-17T08:11:15.493Z,4.78
2023-04-17T08:13:42.990Z,3.97
2023-04-17T08:16:10.585Z,4.88
2023-04-17T08:18:37.920Z,4.50
2023-04-17T08:21:05.277Z,4.22
2023-04-17T08:23:32.446Z,4.32
2023-04-17T08:25:59.606Z,3.88
2023-04-17T08:28:26.767Z,3.97
2023-04-17T08:30:53.985Z,3.83
2023-04-17T08:33:21.354Z,3.65
2023-04-17T08:35:48.455Z,4.03
2023-04-17T08:38:15.660Z,4.45
2023-04-17T08:40:46.562Z,4.32
2023-04-17T08:43:19.583Z,4.50
2023-04-17T08:45:54.335Z,4.22
2023-04-17T08:48:22.136Z,5.07
2023-04-17T08:50:50.362Z,4.60
2023-04-17T08:53:18.230Z,4.43
2023-04-17T08:55:45.900Z,5.40
2023-04-17T08:58:14.414Z,4.63
2023-04-17T09:00:42.703Z,3.95
2023-04-17T09:03:11.323Z,3.33
2023-04-17T09:05:41.693Z,2.72
2023-04-17T09:08:20.818Z,3.10
2023-04-17T09:10:55.109Z,2.83
2023-04-17T09:13:25.849Z,3.13
2023-04-17T09:16:09.513Z,3.10
2023-04-17T09:18:37.640Z,2.83
2023-04-17T09:21:05.587Z,3.35
2023-04-17T09:23:46.128Z,3.22
2023-04-17T09:26:14.125Z,3.00
2023-04-17T09:28:43.521Z,3.50
2023-04-17T09:31:16.999Z,3.00
2023-04-17T09:34:17.071Z,3.28
2023-04-17T09:36:44.477Z,4.00
2023-04-17T09:39:24.230Z,3.53
2023-04-17T09:41:51.650Z,3.58
2023-04-17T09:44:26.586Z,3.45
2023-04-17T09:46:53.942Z,3.85
2023-04-17T09:49:40.480Z,3.20
2023-04-17T09:52:07.685Z,3.35
2023-04-17T09:54:39.096Z,2.90
2023-04-17T09:57:10.084Z,3.50
2023-04-17T09:59:41.158Z,3.53
2023-04-17T10:04:36.550Z,3.42
2023-04-17T10:07:04.508Z,3.65
2023-04-17T10:09:31.574Z,3.55
2023-04-17T10:11:59.176Z,3.10
2023-04-17T10:14:32.609Z,3.40
2023-04-17T10:16:59.804Z,3.35
2023-04-17T10:19:27.725Z,12.05
2023-04-17T10:22:13.397Z,3.08
2023-04-17T10:24:40.903Z,3.38
2023-04-17T10:27:28.340Z,3.10
2023-04-17T10:29:56.653Z,3.40
2023-04-17T10:32:25.727Z,3.17
2023-04-17T10:34:54.139Z,3.70
2023-04-17T10:37:23.116Z,3.33
2023-04-17T10:39:51.575Z,3.70
2023-04-17T10:42:19.914Z,3.38
2023-04-17T10:44:47.421Z,3.47
2023-04-17T10:47:14.702Z,3.30
2023-04-17T10:49:49.358Z,3.28
2023-04-17T10:52:34.713Z,3.38
2023-04-17T10:55:20.959Z,3.38
2023-04-17T10:57:59.408Z,3.33
2023-04-17T11:00:29.559Z,3.72
2023-04-17T11:02:56.804Z,2.92
2023-04-17T11:05:24.296Z,3.15
2023-04-17T11:07:51.808Z,3.17
2023-04-17T11:10:20.208Z,3.10
2023-04-17T11:12:53.233Z,3.50
2023-04-17T11:15:27.664Z,3.15
2023-04-17T11:17:56.035Z,2.67
2023-04-17T11:20:24.280Z,2.92
2023-04-17T11:22:51.649Z,2.60
2023-04-17T11:25:22.602Z,2.55
2023-04-17T11:27:56.308Z,2.90
2023-04-17T11:30:31.279Z,2.70
2023-04-17T11:33:02.727Z,2.22
2023-04-17T11:35:34.135Z,2.53
2023-04-17T11:40:30.757Z,2.22
2023-04-17T11:42:57.945Z,2.45
2023-04-17T11:45:25.115Z,2.03
2023-04-17T11:47:52.853Z,1.80
2023-04-17T11:50:20.959Z,1.30
2023-04-17T11:52:48.055Z,1.60
2023-04-17T11:55:15.646Z,1.92
2023-04-17T11:57:45.954Z,2.03
2023-04-17T12:00:14.376Z,1.87
2023-04-17T12:02:41.739Z,1.60
2023-04-17T12:05:15.872Z,1.83
2023-04-17T12:07:43.151Z,1.70
2023-04-17T12:10:11.110Z,1.73
2023-04-17T12:12:38.347Z,1.70
2023-04-17T12:15:05.669Z,1.70
2023-04-17T12:17:32.815Z,1.67
2023-04-17T12:20:03.882Z,1.60
2023-04-17T12:22:31.116Z,1.85
2023-04-17T12:24:58.263Z,1.48
2023-04-17T12:27:25.645Z,1.65
2023-04-17T12:29:52.730Z,1.65
2023-04-17T12:32:19.842Z,1.75
2023-04-17T12:34:47.225Z,1.70
2023-04-17T12:37:14.312Z,1.45
2023-04-17T12:39:41.567Z,2.05
2023-04-17T12:42:08.725Z,1.63
2023-04-17T12:44:35.948Z,1.70
2023-04-17T12:47:03.094Z,1.60
2023-04-17T12:49:30.403Z,1.33
2023-04-17T12:51:57.482Z,1.50
2023-04-17T12:54:24.561Z,1.42
2023-04-17T12:56:51.753Z,1.17
2023-04-17T12:59:18.858Z,1.60
2023-04-17T13:01:46.377Z,1.27
2023-04-17T13:04:14.150Z,1.60
2023-04-17T13:06:41.793Z,1.63
2023-04-17T13:09:08.961Z,1.20
2023-04-17T13:11:36.272Z,1.60
2023-04-17T13:14:03.479Z,1.88
2023-04-17T13:16:30.698Z,1.33
2023-04-17T13:18:57.873Z,1.38
2023-04-17T13:21:25.050Z,1.30
2023-04-17T13:23:52.186Z,1.20
2023-04-17T13:26:20.381Z,1.52
2023-04-17T13:28:47.495Z,1.80
2023-04-17T13:31:14.573Z,1.88
2023-04-17T13:33:41.776Z,1.33
2023-04-17T13:36:08.885Z,1.33
2023-04-17T13:38:36.050Z,1.40
2023-04-17T13:41:03.183Z,1.60
2023-04-17T13:43:30.335Z,1.48
2023-04-17T13:45:57.522Z,1.30
2023-04-17T13:48:24.684Z,1.30
2023-04-17T13:50:52.007Z,1.50
2023-04-17T13:53:20.292Z,1.35
2023-04-17T13:55:48.513Z,1.40
2023-04-17T13:58:15.698Z,1.35
2023-04-17T14:00:42.832Z,1.42
2023-04-17T14:03:10.376Z,1.20
2023-04-17T14:05:37.635Z,1.20
2023-04-17T14:08:04.965Z,1.20
2023-04-17T14:10:32.132Z,1.50
2023-04-17T14:12:59.205Z,1.35
2023-04-17T14:15:26.319Z,1.30
2023-04-17T14:17:53.650Z,1.30
2023-04-17T14:20:20.998Z,1.20
2023-04-17T14:22:48.206Z,1.63
2023-04-17T14:25:15.610Z,1.65
2023-04-17T14:27:42.874Z,2.10
2023-04-17T14:30:10.110Z,1.52
2023-04-17T14:32:38.608Z,1.60
2023-04-17T14:35:06.448Z,1.23
2023-04-17T14:37:34.179Z,1.02
2023-04-17T14:40:01.623Z,1.38
2023-04-17T14:42:28.870Z,1.80
2023-04-17T14:44:55.978Z,1.35
2023-04-17T14:47:23.170Z,1.83
2023-04-17T14:49:50.970Z,1.23
2023-04-17T14:52:18.089Z,1.60
2023-04-17T14:54:45.255Z,1.30
2023-04-17T14:57:12.493Z,1.70
2023-04-17T14:59:39.662Z,1.70
2023-04-17T15:02:07.293Z,1.30
2023-04-17T15:04:34.596Z,2.00
2023-04-17T15:07:01.755Z,1.60
2023-04-17T15:09:29.224Z,1.92
2023-04-17T15:11:56.848Z,1.65
2023-04-17T15:14:23.994Z,1.67
2023-04-17T15:16:51.135Z,1.55
2023-04-17T15:19:18.277Z,1.55
2023-04-17T15:21:45.391Z,1.92
2023-04-17T15:24:12.534Z,2.20
2023-04-17T15:26:39.611Z,1.70
2023-04-17T15:29:06.800Z,1.80
2023-04-17T15:31:34.862Z,1.80
2023-04-17T15:34:02.030Z,1.70
2023-04-17T15:36:33.908Z,1.85
2023-04-17T15:39:01.473Z,1.98
2023-04-17T15:41:28.659Z,2.10
2023-04-17T15:43:56.320Z,1.90
2023-04-17T15:46:23.562Z,1.90
2023-04-17T15:49:04.998Z,1.88
2023-04-17T15:51:35.806Z,1.80
2023-04-17T15:54:02.882Z,2.17
2023-04-17T15:56:29.960Z,2.38
2023-04-17T15:58:57.183Z,2.20
2023-04-17T16:01:24.528Z,2.00
2023-04-17T16:03:51.987Z,1.92
2023-04-17T16:06:20.465Z,2.10
2023-04-17T16:08:47.734Z,2.08
2023-04-17T16:11:14.905Z,2.30
2023-04-17T16:13:42.117Z,2.05
2023-04-17T16:16:09.306Z,1.80
2023-04-17T16:18:36.471Z,2.50
2023-04-17T16:21:03.600Z,1.90
2023-04-17T16:23:30.898Z,2.22
2023-04-17T16:25:57.971Z,2.47
2023-04-17T16:28:25.138Z,2.38
2023-04-17T16:30:52.218Z,2.45
2023-04-17T16:33:19.289Z,2.00
2023-04-17T16:35:46.572Z,2.20
2023-04-17T16:38:13.676Z,2.00
2023-04-17T16:40:40.779Z,1.83
2023-04-17T16:43:09.075Z,2.25
2023-04-17T16:45:39.201Z,2.25
2023-04-17T16:48:09.174Z,2.15
2023-04-17T16:50:36.417Z,2.50
2023-04-17T16:53:03.504Z,2.80
2023-04-17T16:55:30.665Z,2.30
2023-04-17T16:58:00.040Z,1.98
2023-04-17T17:00:27.172Z,2.50
2023-04-17T17:02:54.450Z,2.17
2023-04-17T17:05:21.791Z,2.42
2023-04-17T17:07:49.096Z,2.13
2023-04-17T17:10:16.270Z,2.53
2023-04-17T17:12:43.434Z,2.30
2023-04-17T17:15:10.812Z,2.50
2023-04-17T17:17:37.993Z,2.30
2023-04-17T17:20:05.487Z,2.67
2023-04-17T17:22:32.617Z,2.58
2023-04-17T17:24:59.740Z,2.60
2023-04-17T17:27:26.796Z,2.60
2023-04-17T17:29:59.016Z,2.50
2023-04-17T17:32:27.573Z,2.40
2023-04-17T17:34:54.663Z,2.42
2023-04-17T17:37:21.810Z,2.83
2023-04-17T17:39:49.221Z,2.45
2023-04-17T17:42:16.333Z,2.30
2023-04-17T17:44:43.398Z,2.78
2023-04-17T17:47:10.662Z,2.35
2023-04-17T17:49:37.732Z,2.00
2023-04-17T17:52:04.916Z,2.80
2023-04-17T17:54:36.318Z,2.20
2023-04-17T17:57:03.591Z,2.33
2023-04-17T17:59:30.698Z,2.50
2023-04-17T18:01:58.701Z,2.42
2023-04-17T18:04:26.238Z,2.60
2023-04-17T18:06:53.457Z,2.40
2023-04-17T18:09:20.614Z,2.17
2023-04-17T18:11:47.702Z,2.38
2023-04-17T18:14:14.888Z,2.83
2023-04-17T18:16:42.980Z,2.28
2023-04-17T18:19:10.185Z,2.75
2023-04-17T18:21:37.538Z,2.30
2023-04-17T18:24:04.950Z,2.15
2023-04-17T18:26:33.320Z,2.13
2023-04-17T18:29:00.490Z,2.38
2023-04-17T18:31:28.353Z,2.00
2023-04-17T18:33:55.669Z,2.17
2023-04-17T18:36:23.013Z,2.22
2023-04-17T18:38:50.179Z,2.35
2023-04-17T18:41:18.937Z,2.53
2023-04-17T18:43:46.030Z,1.98
2023-04-17T18:46:13.248Z,2.45
2023-04-17T18:48:40.393Z,2.60
2023-04-17T18:51:17.567Z,2.80
2023-04-17T18:53:44.797Z,2.58
2023-04-17T18:56:13.581Z,2.75
2023-04-17T18:58:40.786Z,3.10
2023-04-17T19:01:10.204Z,2.58
2023-04-17T19:03:38.020Z,3.40
2023-04-17T19:06:06.711Z,2.40
2023-04-17T19:08:33.895Z,3.05
2023-04-17T19:11:01.049Z,3.10
2023-04-17T19:13:28.392Z,3.38
2023-04-17T19:15:55.628Z,3.15
2023-04-17T19:18:22.896Z,3.30
2023-04-17T19:20:50.201Z,3.40
2023-04-17T19:23:17.324Z,3.40
2023-04-17T19:25:44.394Z,2.80
2023-04-17T19:28:13.290Z,3.58
2023-04-17T19:30:40.483Z,3.05
2023-04-17T19:33:07.623Z,3.28
2023-04-17T19:35:34.847Z,4.68
2023-04-17T19:38:01.991Z,3.47
2023-04-17T19:40:29.201Z,2.63
2023-04-17T19:43:01.314Z,3.28
2023-04-17T19:45:28.765Z,3.25
2023-04-17T19:47:57.107Z,3.00
2023-04-17T19:50:27.083Z,2.70
2023-04-17T19:52:54.585Z,3.05
2023-04-17T19:55:21.739Z,3.33
2023-04-17T19:57:50.424Z,3.33
2023-04-17T20:00:17.959Z,3.10
2023-04-17T20:02:45.218Z,2.60
2023-04-17T20:05:12.437Z,4.20
2023-04-17T20:07:39.528Z,3.30
2023-04-17T20:10:06.913Z,3.25
2023-04-17T20:12:34.418Z,2.80
2023-04-17T20:15:01.562Z,2.95
2023-04-17T20:17:28.828Z,3.03
2023-04-17T20:19:56.003Z,3.05
2023-04-17T20:22:23.073Z,3.10
2023-04-17T20:24:50.777Z,2.92
2023-04-17T20:27:18.258Z,2.50
2023-04-17T20:29:45.482Z,3.22
2023-04-17T20:32:12.638Z,2.80
2023-04-17T20:34:40.632Z,2.97
2023-04-17T20:37:07.822Z,2.15
2023-04-17T20:39:34.938Z,2.45
2023-04-17T20:42:02.247Z,2.75
2023-04-17T20:44:29.327Z,3.30
2023-04-17T20:46:56.405Z,2.70
2023-04-17T20:49:23.620Z,2.55
2023-04-17T20:51:51.554Z,2.92
2023-04-17T20:54:18.648Z,2.70
2023-04-17T20:56:45.808Z,2.53
2023-04-17T20:59:12.898Z,2.63
2023-04-17T21:01:40.098Z,2.90
2023-04-17T21:04:07.343Z,2.35
2023-04-17T21:06:34.524Z,2.75
2023-04-17T21:09:01.644Z,2.58
2023-04-17T21:11:28.823Z,2.70
2023-04-17T21:13:55.904Z,2.40
2023-04-17T21:16:23.009Z,2.35
2023-04-17T21:18:50.302Z,3.05
2023-04-17T21:21:17.480Z,2.40
2023-04-17T21:23:44.561Z,2.95
2023-04-17T21:26:11.733Z,2.55
2023-04-17T21:28:38.905Z,2.30
2023-04-17T21:31:10.089Z,2.53
2023-04-17T21:36:04.671Z,2.47
2023-04-17T21:38:31.796Z,2.47
2023-04-17T21:40:58.947Z,2.90
2023-04-17T21:43:26.131Z,2.60
2023-04-17T21:45:56.873Z,2.30
2023-04-17T21:48:24.242Z,2.03
2023-04-17T21:50:51.361Z,2.53
2023-04-17T21:53:18.473Z,2.38
2023-04-17T21:55:45.895Z,2.25
2023-04-17T21:58:12.997Z,2.33
2023-04-17T22:00:40.125Z,2.47
2023-04-17T22:03:07.290Z,2.03
2023-04-17T22:05:34.406Z,2.22
2023-04-17T22:08:01.605Z,2.60
2023-04-17T22:10:30.066Z,2.40
2023-04-17T22:12:57.204Z,2.38
2023-04-17T22:15:24.395Z,2.05
2023-04-17T22:17:51.530Z,2.63
2023-04-17T22:20:19.022Z,2.58
2023-04-17T22:22:46.780Z,2.60
2023-04-17T22:25:14.022Z,2.65
2023-04-17T22:27:41.094Z,2.40
2023-04-17T22:30:08.405Z,2.20
2023-04-17T22:32:36.131Z,2.53
2023-04-17T22:35:04.295Z,2.58
2023-04-17T22:37:31.474Z,2.08
2023-04-17T22:39:58.651Z,2.50
2023-04-17T22:42:25.797Z,2.00
2023-04-17T22:44:52.965Z,2.42
2023-04-17T22:47:22.743Z,2.05
2023-04-17T22:49:49.993Z,2.30
2023-04-17T22:52:17.062Z,2.80
2023-04-17T22:54:44.170Z,2.53
2023-04-17T22:57:11.882Z,2.67
2023-04-17T22:59:38.954Z,2.33
2023-04-17T23:02:06.266Z,2.20
2023-04-17T23:04:33.431Z,2.60
2023-04-17T23:07:01.704Z,2.50
2023-04-17T23:09:28.828Z,2.33
2023-04-17T23:11:56.083Z,2.47
2023-04-17T23:14:23.208Z,2.58
2023-04-17T23:16:52.698Z,2.65
2023-04-17T23:19:21.114Z,2.53
2023-04-17T23:21:48.217Z,2.72
2023-04-17T23:24:15.475Z,2.85
2023-04-17T23:26:42.655Z,2.72
2023-04-17T23:29:09.761Z,2.55
2023-04-17T23:31:39.933Z,2.53
2023-04-17T23:34:07.107Z,2.45
2023-04-17T23:36:34.197Z,2.83
2023-04-17T23:39:01.377Z,2.50
2023-04-17T23:41:29.621Z,2.55
2023-04-17T23:43:56.737Z,2.75
2023-04-17T23:46:23.836Z,2.60
2023-04-17T23:48:51.029Z,2.60
2023-04-17T23:51:18.239Z,2.63
2023-04-17T23:53:45.622Z,2.40
2023-04-17T23:56:12.875Z,2.92
2023-04-17T23:58:39.987Z,2.58
